Weather at Sirocco Airstrip

Public forecast

Using degrees Celsius for public forecast. Weather courtesy of forecast.io.

Closest aviation weather report (METAR) to Sirocco Airstrip

Report is more than 2 hours old.

Closest report is Nakuru Airport, 26.5 nm (49.2 km) NNW.

2024/05/29 20:00 (retrieved 2 hours ago)

HKNK 292000Z 00000KT 9999 FEW018 18/14

Closest aviation forecast (TAF) to Sirocco Airstrip

Closest forecast is Nairobi Wilson Airport, 48.0 nm (88.9 km) SE.

2024/05/29 18:03 (retrieved 4 hours ago)

TAF HKNW 291700Z 2918/3018 14004KT 9999 BKN022 BECMG 2920/2923 VRB02KT BKN016 BECMG 3008/3011 24010KT BKN025